sensor_id;sensor_type;location;lat;lon;timestamp;P1;durP1;ratioP1;P2;durP2;ratioP2
75246;SDS011;63844;50.042;19.224;2023-04-01T00:02:21;3.00;;;0.90;;
75246;SDS011;63844;50.042;19.224;2023-04-01T00:04:48;2.80;;;0.80;;
75246;SDS011;63844;50.042;19.224;2023-04-01T00:07:14;1.60;;;0.60;;
75246;SDS011;63844;50.042;19.224;2023-04-01T00:09:41;2.80;;;0.60;;
75246;SDS011;63844;50.042;19.224;2023-04-01T00:12:07;1.50;;;0.70;;
75246;SDS011;63844;50.042;19.224;2023-04-01T00:14:34;2.50;;;0.80;;
75246;SDS011;63844;50.042;19.224;2023-04-01T00:17:03;2.30;;;0.70;;
75246;SDS011;63844;50.042;19.224;2023-04-01T00:19:29;2.20;;;0.70;;
75246;SDS011;63844;50.042;19.224;2023-04-01T00:21:56;2.00;;;0.80;;
75246;SDS011;63844;50.042;19.224;2023-04-01T00:24:23;2.70;;;0.70;;
75246;SDS011;63844;50.042;19.224;2023-04-01T00:26:49;2.20;;;0.70;;
75246;SDS011;63844;50.042;19.224;2023-04-01T00:29:16;2.00;;;0.80;;
75246;SDS011;63844;50.042;19.224;2023-04-01T00:31:42;1.60;;;1.00;;
75246;SDS011;63844;50.042;19.224;2023-04-01T00:34:09;2.10;;;0.50;;
75246;SDS011;63844;50.042;19.224;2023-04-01T00:36:35;1.90;;;0.80;;
75246;SDS011;63844;50.042;19.224;2023-04-01T00:39:02;2.10;;;0.60;;
75246;SDS011;63844;50.042;19.224;2023-04-01T00:41:28;4.40;;;1.10;;
75246;SDS011;63844;50.042;19.224;2023-04-01T00:46:46;2.80;;;1.00;;
75246;SDS011;63844;50.042;19.224;2023-04-01T00:51:41;2.80;;;0.80;;
75246;SDS011;63844;50.042;19.224;2023-04-01T00:54:11;3.60;;;1.10;;
75246;SDS011;63844;50.042;19.224;2023-04-01T00:56:41;5.10;;;1.00;;
75246;SDS011;63844;50.042;19.224;2023-04-01T00:59:16;4.10;;;1.00;;
75246;SDS011;63844;50.042;19.224;2023-04-01T01:01:47;2.80;;;0.90;;
75246;SDS011;63844;50.042;19.224;2023-04-01T01:04:24;3.00;;;0.50;;
75246;SDS011;63844;50.042;19.224;2023-04-01T01:06:56;3.20;;;1.00;;
75246;SDS011;63844;50.042;19.224;2023-04-01T01:12:18;2.80;;;1.10;;
75246;SDS011;63844;50.042;19.224;2023-04-01T01:14:53;3.60;;;0.90;;
75246;SDS011;63844;50.042;19.224;2023-04-01T01:17:29;2.20;;;0.60;;
75246;SDS011;63844;50.042;19.224;2023-04-01T01:32:06;2.00;;;0.70;;
75246;SDS011;63844;50.042;19.224;2023-04-01T01:37:45;1.50;;;0.70;;
75246;SDS011;63844;50.042;19.224;2023-04-01T01:40:16;2.30;;;0.90;;
75246;SDS011;63844;50.042;19.224;2023-04-01T01:42:44;4.70;;;1.40;;
75246;SDS011;63844;50.042;19.224;2023-04-01T01:45:14;2.60;;;0.90;;
75246;SDS011;63844;50.042;19.224;2023-04-01T01:47:45;1.90;;;1.10;;
75246;SDS011;63844;50.042;19.224;2023-04-01T01:50:12;1.20;;;0.70;;
75246;SDS011;63844;50.042;19.224;2023-04-01T01:52:40;1.20;;;0.70;;
75246;SDS011;63844;50.042;19.224;2023-04-01T01:55:22;2.80;;;1.10;;
75246;SDS011;63844;50.042;19.224;2023-04-01T01:57:52;3.20;;;0.70;;
75246;SDS011;63844;50.042;19.224;2023-04-01T02:00:20;4.10;;;1.00;;
75246;SDS011;63844;50.042;19.224;2023-04-01T02:02:48;2.20;;;0.80;;
75246;SDS011;63844;50.042;19.224;2023-04-01T02:05:16;2.90;;;1.20;;
75246;SDS011;63844;50.042;19.224;2023-04-01T02:07:46;2.60;;;0.90;;
75246;SDS011;63844;50.042;19.224;2023-04-01T02:10:20;4.40;;;1.60;;
75246;SDS011;63844;50.042;19.224;2023-04-01T02:12:50;2.70;;;0.90;;
75246;SDS011;63844;50.042;19.224;2023-04-01T02:15:20;3.30;;;1.00;;
75246;SDS011;63844;50.042;19.224;2023-04-01T02:17:47;3.50;;;1.20;;
75246;SDS011;63844;50.042;19.224;2023-04-01T02:20:18;5.40;;;1.50;;
75246;SDS011;63844;50.042;19.224;2023-04-01T02:22:49;6.50;;;2.40;;
75246;SDS011;63844;50.042;19.224;2023-04-01T02:25:18;12.70;;;3.90;;
75246;SDS011;63844;50.042;19.224;2023-04-01T02:27:48;7.00;;;2.50;;
75246;SDS011;63844;50.042;19.224;2023-04-01T02:30:15;5.50;;;2.60;;
75246;SDS011;63844;50.042;19.224;2023-04-01T02:32:43;4.50;;;2.00;;
75246;SDS011;63844;50.042;19.224;2023-04-01T02:35:11;6.80;;;1.80;;
75246;SDS011;63844;50.042;19.224;2023-04-01T02:37:40;3.50;;;1.30;;
75246;SDS011;63844;50.042;19.224;2023-04-01T02:40:10;5.40;;;1.40;;
75246;SDS011;63844;50.042;19.224;2023-04-01T02:42:38;2.30;;;0.90;;
75246;SDS011;63844;50.042;19.224;2023-04-01T02:45:06;3.10;;;1.70;;
75246;SDS011;63844;50.042;19.224;2023-04-01T02:47:33;4.70;;;1.70;;
75246;SDS011;63844;50.042;19.224;2023-04-01T02:49:59;5.90;;;1.10;;
75246;SDS011;63844;50.042;19.224;2023-04-01T02:52:26;6.70;;;1.50;;
75246;SDS011;63844;50.042;19.224;2023-04-01T02:54:54;3.30;;;1.20;;
75246;SDS011;63844;50.042;19.224;2023-04-01T02:57:21;4.20;;;1.30;;
75246;SDS011;63844;50.042;19.224;2023-04-01T02:59:48;2.40;;;1.20;;
75246;SDS011;63844;50.042;19.224;2023-04-01T03:02:15;2.90;;;0.70;;
75246;SDS011;63844;50.042;19.224;2023-04-01T03:04:42;6.00;;;1.90;;
75246;SDS011;63844;50.042;19.224;2023-04-01T03:07:09;7.50;;;2.20;;
75246;SDS011;63844;50.042;19.224;2023-04-01T03:09:39;7.40;;;2.40;;
75246;SDS011;63844;50.042;19.224;2023-04-01T03:12:06;5.60;;;2.10;;
75246;SDS011;63844;50.042;19.224;2023-04-01T03:14:33;7.50;;;2.70;;
75246;SDS011;63844;50.042;19.224;2023-04-01T03:16:59;7.30;;;3.00;;
75246;SDS011;63844;50.042;19.224;2023-04-01T03:19:26;6.60;;;1.30;;
75246;SDS011;63844;50.042;19.224;2023-04-01T03:21:52;7.10;;;1.60;;
75246;SDS011;63844;50.042;19.224;2023-04-01T03:24:19;3.20;;;1.40;;
75246;SDS011;63844;50.042;19.224;2023-04-01T03:26:46;4.60;;;1.80;;
75246;SDS011;63844;50.042;19.224;2023-04-01T03:29:13;5.70;;;1.90;;
75246;SDS011;63844;50.042;19.224;2023-04-01T03:31:41;4.30;;;1.80;;
75246;SDS011;63844;50.042;19.224;2023-04-01T03:34:08;3.80;;;1.30;;
75246;SDS011;63844;50.042;19.224;2023-04-01T03:36:35;4.90;;;1.40;;
75246;SDS011;63844;50.042;19.224;2023-04-01T03:39:02;4.00;;;1.20;;
75246;SDS011;63844;50.042;19.224;2023-04-01T03:41:29;4.50;;;1.40;;
75246;SDS011;63844;50.042;19.224;2023-04-01T03:43:56;4.90;;;1.40;;
75246;SDS011;63844;50.042;19.224;2023-04-01T03:46:23;2.60;;;1.30;;
75246;SDS011;63844;50.042;19.224;2023-04-01T03:48:50;5.10;;;1.40;;
75246;SDS011;63844;50.042;19.224;2023-04-01T03:51:16;3.20;;;1.50;;
75246;SDS011;63844;50.042;19.224;2023-04-01T03:53:42;2.30;;;1.00;;
75246;SDS011;63844;50.042;19.224;2023-04-01T03:56:09;3.20;;;1.40;;
75246;SDS011;63844;50.042;19.224;2023-04-01T04:01:02;2.30;;;1.00;;
75246;SDS011;63844;50.042;19.224;2023-04-01T04:03:29;2.30;;;1.10;;
75246;SDS011;63844;50.042;19.224;2023-04-01T04:05:55;2.60;;;1.00;;
75246;SDS011;63844;50.042;19.224;2023-04-01T04:10:54;2.00;;;1.30;;
75246;SDS011;63844;50.042;19.224;2023-04-01T04:13:22;4.20;;;1.80;;
75246;SDS011;63844;50.042;19.224;2023-04-01T04:15:48;3.50;;;1.50;;
75246;SDS011;63844;50.042;19.224;2023-04-01T04:18:15;3.30;;;1.60;;
75246;SDS011;63844;50.042;19.224;2023-04-01T04:20:44;4.00;;;1.20;;
75246;SDS011;63844;50.042;19.224;2023-04-01T04:23:14;4.70;;;1.80;;
75246;SDS011;63844;50.042;19.224;2023-04-01T04:25:41;2.70;;;1.80;;
75246;SDS011;63844;50.042;19.224;2023-04-01T04:28:07;6.10;;;1.70;;
75246;SDS011;63844;50.042;19.224;2023-04-01T04:30:34;9.10;;;1.70;;
75246;SDS011;63844;50.042;19.224;2023-04-01T04:33:00;3.40;;;1.30;;
75246;SDS011;63844;50.042;19.224;2023-04-01T04:35:27;4.10;;;1.80;;
75246;SDS011;63844;50.042;19.224;2023-04-01T04:37:54;4.30;;;1.40;;
75246;SDS011;63844;50.042;19.224;2023-04-01T04:40:20;3.50;;;1.40;;
75246;SDS011;63844;50.042;19.224;2023-04-01T04:42:47;6.20;;;1.80;;
75246;SDS011;63844;50.042;19.224;2023-04-01T04:45:13;5.50;;;1.80;;
75246;SDS011;63844;50.042;19.224;2023-04-01T04:47:40;4.90;;;1.60;;
75246;SDS011;63844;50.042;19.224;2023-04-01T04:50:06;4.40;;;1.60;;
75246;SDS011;63844;50.042;19.224;2023-04-01T04:52:33;5.20;;;1.40;;
75246;SDS011;63844;50.042;19.224;2023-04-01T04:55:00;2.70;;;1.00;;
75246;SDS011;63844;50.042;19.224;2023-04-01T04:57:26;3.80;;;1.20;;
75246;SDS011;63844;50.042;19.224;2023-04-01T04:59:53;3.80;;;1.10;;
75246;SDS011;63844;50.042;19.224;2023-04-01T05:02:19;3.80;;;1.50;;
75246;SDS011;63844;50.042;19.224;2023-04-01T05:04:46;3.90;;;1.50;;
75246;SDS011;63844;50.042;19.224;2023-04-01T05:07:12;6.40;;;2.20;;
75246;SDS011;63844;50.042;19.224;2023-04-01T05:09:39;3.10;;;1.30;;
75246;SDS011;63844;50.042;19.224;2023-04-01T05:12:05;4.70;;;1.20;;
75246;SDS011;63844;50.042;19.224;2023-04-01T05:14:32;3.80;;;1.30;;
75246;SDS011;63844;50.042;19.224;2023-04-01T05:16:58;4.10;;;1.50;;
75246;SDS011;63844;50.042;19.224;2023-04-01T05:19:25;6.00;;;1.90;;
75246;SDS011;63844;50.042;19.224;2023-04-01T05:21:51;6.80;;;1.80;;
75246;SDS011;63844;50.042;19.224;2023-04-01T05:24:19;4.30;;;1.50;;
75246;SDS011;63844;50.042;19.224;2023-04-01T05:26:45;4.20;;;1.60;;
75246;SDS011;63844;50.042;19.224;2023-04-01T05:29:12;1.70;;;0.60;;
75246;SDS011;63844;50.042;19.224;2023-04-01T05:31:38;2.60;;;1.10;;
75246;SDS011;63844;50.042;19.224;2023-04-01T05:34:05;2.80;;;0.90;;
75246;SDS011;63844;50.042;19.224;2023-04-01T05:36:31;4.20;;;1.30;;
75246;SDS011;63844;50.042;19.224;2023-04-01T05:38:58;2.60;;;1.20;;
75246;SDS011;63844;50.042;19.224;2023-04-01T05:41:24;5.80;;;1.70;;
75246;SDS011;63844;50.042;19.224;2023-04-01T05:43:51;2.50;;;1.10;;
75246;SDS011;63844;50.042;19.224;2023-04-01T05:46:17;3.70;;;1.10;;
75246;SDS011;63844;50.042;19.224;2023-04-01T05:48:44;4.00;;;1.20;;
75246;SDS011;63844;50.042;19.224;2023-04-01T05:51:14;2.20;;;0.90;;
75246;SDS011;63844;50.042;19.224;2023-04-01T05:53:41;3.20;;;1.20;;
75246;SDS011;63844;50.042;19.224;2023-04-01T05:56:08;2.50;;;0.90;;
75246;SDS011;63844;50.042;19.224;2023-04-01T05:58:36;3.40;;;0.90;;
75246;SDS011;63844;50.042;19.224;2023-04-01T06:01:04;1.80;;;0.80;;
75246;SDS011;63844;50.042;19.224;2023-04-01T06:03:32;3.80;;;0.90;;
75246;SDS011;63844;50.042;19.224;2023-04-01T06:08:27;4.20;;;1.00;;
75246;SDS011;63844;50.042;19.224;2023-04-01T06:19:53;3.30;;;1.20;;
75246;SDS011;63844;50.042;19.224;2023-04-01T06:28:00;3.00;;;0.80;;
75246;SDS011;63844;50.042;19.224;2023-04-01T06:30:49;5.90;;;1.00;;
75246;SDS011;63844;50.042;19.224;2023-04-01T06:44:29;3.20;;;1.20;;
75246;SDS011;63844;50.042;19.224;2023-04-01T06:50:24;3.50;;;1.40;;
75246;SDS011;63844;50.042;19.224;2023-04-01T06:56:01;3.80;;;1.10;;
75246;SDS011;63844;50.042;19.224;2023-04-01T06:58:41;4.40;;;1.50;;
75246;SDS011;63844;50.042;19.224;2023-04-01T07:01:13;1.70;;;0.90;;
75246;SDS011;63844;50.042;19.224;2023-04-01T07:06:35;4.50;;;0.80;;
75246;SDS011;63844;50.042;19.224;2023-04-01T07:09:06;3.30;;;1.00;;
75246;SDS011;63844;50.042;19.224;2023-04-01T07:11:38;4.00;;;1.00;;
75246;SDS011;63844;50.042;19.224;2023-04-01T07:14:10;4.50;;;0.80;;
75246;SDS011;63844;50.042;19.224;2023-04-01T07:17:04;1.90;;;0.80;;
75246;SDS011;63844;50.042;19.224;2023-04-01T07:19:36;2.00;;;0.80;;
75246;SDS011;63844;50.042;19.224;2023-04-01T07:24:56;2.80;;;1.00;;
75246;SDS011;63844;50.042;19.224;2023-04-01T07:27:27;2.40;;;0.90;;
75246;SDS011;63844;50.042;19.224;2023-04-01T07:29:56;1.90;;;0.90;;
75246;SDS011;63844;50.042;19.224;2023-04-01T07:32:29;2.40;;;0.90;;
75246;SDS011;63844;50.042;19.224;2023-04-01T07:35:00;5.70;;;1.20;;
75246;SDS011;63844;50.042;19.224;2023-04-01T07:46:05;2.20;;;0.80;;
75246;SDS011;63844;50.042;19.224;2023-04-01T07:51:37;1.90;;;0.90;;
75246;SDS011;63844;50.042;19.224;2023-04-01T07:54:26;2.00;;;0.80;;
75246;SDS011;63844;50.042;19.224;2023-04-01T07:57:23;3.10;;;0.70;;
75246;SDS011;63844;50.042;19.224;2023-04-01T08:00:33;3.10;;;0.70;;
75246;SDS011;63844;50.042;19.224;2023-04-01T08:03:17;2.00;;;0.50;;
75246;SDS011;63844;50.042;19.224;2023-04-01T08:11:35;2.60;;;1.10;;
75246;SDS011;63844;50.042;19.224;2023-04-01T08:14:28;2.20;;;0.90;;
75246;SDS011;63844;50.042;19.224;2023-04-01T08:17:08;2.00;;;0.90;;
75246;SDS011;63844;50.042;19.224;2023-04-01T08:22:29;1.60;;;1.00;;
75246;SDS011;63844;50.042;19.224;2023-04-01T08:25:04;2.10;;;0.70;;
75246;SDS011;63844;50.042;19.224;2023-04-01T08:27:40;1.90;;;0.70;;
75246;SDS011;63844;50.042;19.224;2023-04-01T08:30:18;3.40;;;1.10;;
75246;SDS011;63844;50.042;19.224;2023-04-01T08:32:59;2.60;;;1.00;;
75246;SDS011;63844;50.042;19.224;2023-04-01T08:35:37;3.60;;;1.10;;
75246;SDS011;63844;50.042;19.224;2023-04-01T08:38:13;1.70;;;0.90;;
75246;SDS011;63844;50.042;19.224;2023-04-01T08:40:51;3.60;;;1.30;;
75246;SDS011;63844;50.042;19.224;2023-04-01T08:52:23;4.70;;;1.70;;
75246;SDS011;63844;50.042;19.224;2023-04-01T09:00:50;3.30;;;1.40;;
75246;SDS011;63844;50.042;19.224;2023-04-01T09:03:34;4.20;;;1.50;;
75246;SDS011;63844;50.042;19.224;2023-04-01T09:09:02;4.50;;;1.70;;
75246;SDS011;63844;50.042;19.224;2023-04-01T09:17:28;2.60;;;1.40;;
75246;SDS011;63844;50.042;19.224;2023-04-01T09:20:17;5.80;;;1.40;;
75246;SDS011;63844;50.042;19.224;2023-04-01T09:23:16;3.10;;;1.40;;
75246;SDS011;63844;50.042;19.224;2023-04-01T09:40:25;3.80;;;1.60;;
75246;SDS011;63844;50.042;19.224;2023-04-01T09:57:27;2.40;;;1.90;;
75246;SDS011;63844;50.042;19.224;2023-04-01T10:00:06;3.60;;;2.00;;
75246;SDS011;63844;50.042;19.224;2023-04-01T10:11:44;3.40;;;2.00;;
75246;SDS011;63844;50.042;19.224;2023-04-01T10:17:47;2.60;;;1.60;;
75246;SDS011;63844;50.042;19.224;2023-04-01T10:31:23;1.80;;;1.30;;
75246;SDS011;63844;50.042;19.224;2023-04-01T10:37:00;2.90;;;1.40;;
75246;SDS011;63844;50.042;19.224;2023-04-01T10:45:09;2.70;;;1.00;;
75246;SDS011;63844;50.042;19.224;2023-04-01T10:47:53;2.80;;;1.10;;
75246;SDS011;63844;50.042;19.224;2023-04-01T10:56:15;3.00;;;2.10;;
75246;SDS011;63844;50.042;19.224;2023-04-01T11:04:58;4.60;;;2.40;;
75246;SDS011;63844;50.042;19.224;2023-04-01T11:25:42;3.60;;;1.80;;
75246;SDS011;63844;50.042;19.224;2023-04-01T11:33:44;5.70;;;2.00;;
75246;SDS011;63844;50.042;19.224;2023-04-01T11:36:54;5.00;;;3.00;;
75246;SDS011;63844;50.042;19.224;2023-04-01T11:39:37;4.00;;;2.20;;
75246;SDS011;63844;50.042;19.224;2023-04-01T11:42:19;4.40;;;2.80;;
75246;SDS011;63844;50.042;19.224;2023-04-01T11:45:17;6.10;;;4.20;;
75246;SDS011;63844;50.042;19.224;2023-04-01T11:48:03;6.10;;;5.40;;
75246;SDS011;63844;50.042;19.224;2023-04-01T11:56:33;2.50;;;1.00;;
75246;SDS011;63844;50.042;19.224;2023-04-01T12:02:13;1.80;;;0.60;;
75246;SDS011;63844;50.042;19.224;2023-04-01T12:05:08;3.80;;;1.80;;
75246;SDS011;63844;50.042;19.224;2023-04-01T12:16:40;5.00;;;1.80;;
75246;SDS011;63844;50.042;19.224;2023-04-01T12:25:06;4.20;;;1.60;;
75246;SDS011;63844;50.042;19.224;2023-04-01T12:30:27;1.50;;;0.80;;
75246;SDS011;63844;50.042;19.224;2023-04-01T12:33:04;2.50;;;1.30;;
75246;SDS011;63844;50.042;19.224;2023-04-01T12:38:30;3.00;;;2.10;;
75246;SDS011;63844;50.042;19.224;2023-04-01T12:46:24;3.60;;;1.70;;
75246;SDS011;63844;50.042;19.224;2023-04-01T12:49:05;2.90;;;1.50;;
75246;SDS011;63844;50.042;19.224;2023-04-01T12:54:45;1.90;;;0.70;;
75246;SDS011;63844;50.042;19.224;2023-04-01T12:57:31;2.10;;;1.30;;
75246;SDS011;63844;50.042;19.224;2023-04-01T13:03:16;3.70;;;1.40;;
75246;SDS011;63844;50.042;19.224;2023-04-01T13:09:17;3.40;;;1.70;;
75246;SDS011;63844;50.042;19.224;2023-04-01T13:12:13;3.50;;;1.50;;
75246;SDS011;63844;50.042;19.224;2023-04-01T13:14:57;4.50;;;2.10;;
75246;SDS011;63844;50.042;19.224;2023-04-01T13:20:40;6.50;;;3.00;;
75246;SDS011;63844;50.042;19.224;2023-04-01T13:25:45;5.40;;;3.50;;
75246;SDS011;63844;50.042;19.224;2023-04-01T13:28:23;26.80;;;14.90;;
75246;SDS011;63844;50.042;19.224;2023-04-01T13:34:08;17.30;;;9.60;;
75246;SDS011;63844;50.042;19.224;2023-04-01T13:37:06;10.00;;;6.30;;
75246;SDS011;63844;50.042;19.224;2023-04-01T13:39:34;6.70;;;4.40;;
75246;SDS011;63844;50.042;19.224;2023-04-01T13:44:45;9.60;;;6.10;;
75246;SDS011;63844;50.042;19.224;2023-04-01T13:47:40;45.50;;;25.80;;
75246;SDS011;63844;50.042;19.224;2023-04-01T13:50:06;11.30;;;7.50;;
75246;SDS011;63844;50.042;19.224;2023-04-01T13:55:45;14.50;;;7.00;;
75246;SDS011;63844;50.042;19.224;2023-04-01T13:58:23;7.90;;;5.10;;
75246;SDS011;63844;50.042;19.224;2023-04-01T14:01:22;3.50;;;2.50;;
75246;SDS011;63844;50.042;19.224;2023-04-01T14:04:15;4.70;;;2.10;;
75246;SDS011;63844;50.042;19.224;2023-04-01T14:12:24;3.70;;;2.50;;
75246;SDS011;63844;50.042;19.224;2023-04-01T14:24:06;5.50;;;2.40;;
75246;SDS011;63844;50.042;19.224;2023-04-01T14:26:55;8.10;;;3.60;;
75246;SDS011;63844;50.042;19.224;2023-04-01T14:32:38;5.90;;;3.10;;
75246;SDS011;63844;50.042;19.224;2023-04-01T14:37:57;5.20;;;3.40;;
75246;SDS011;63844;50.042;19.224;2023-04-01T14:49:53;5.00;;;2.60;;
75246;SDS011;63844;50.042;19.224;2023-04-01T14:52:31;5.30;;;2.80;;
75246;SDS011;63844;50.042;19.224;2023-04-01T14:55:11;7.90;;;4.30;;
75246;SDS011;63844;50.042;19.224;2023-04-01T14:58:00;9.10;;;5.60;;
75246;SDS011;63844;50.042;19.224;2023-04-01T15:00:40;11.70;;;6.20;;
75246;SDS011;63844;50.042;19.224;2023-04-01T15:03:25;6.80;;;3.50;;
75246;SDS011;63844;50.042;19.224;2023-04-01T15:08:53;10.70;;;4.10;;
75246;SDS011;63844;50.042;19.224;2023-04-01T15:26:05;5.10;;;2.20;;
75246;SDS011;63844;50.042;19.224;2023-04-01T15:28:39;4.00;;;2.10;;
75246;SDS011;63844;50.042;19.224;2023-04-01T15:31:22;9.50;;;6.20;;
75246;SDS011;63844;50.042;19.224;2023-04-01T15:34:19;9.70;;;5.80;;
75246;SDS011;63844;50.042;19.224;2023-04-01T15:37:07;6.60;;;3.90;;
75246;SDS011;63844;50.042;19.224;2023-04-01T15:39:48;5.60;;;3.30;;
75246;SDS011;63844;50.042;19.224;2023-04-01T15:45:03;5.50;;;3.50;;
75246;SDS011;63844;50.042;19.224;2023-04-01T15:51:27;5.10;;;2.60;;
75246;SDS011;63844;50.042;19.224;2023-04-01T15:54:24;4.30;;;2.70;;
75246;SDS011;63844;50.042;19.224;2023-04-01T15:59:38;6.70;;;3.40;;
75246;SDS011;63844;50.042;19.224;2023-04-01T16:02:43;5.80;;;2.60;;
75246;SDS011;63844;50.042;19.224;2023-04-01T16:08:00;6.30;;;3.40;;
75246;SDS011;63844;50.042;19.224;2023-04-01T16:13:42;9.20;;;5.00;;
75246;SDS011;63844;50.042;19.224;2023-04-01T16:17:05;9.00;;;5.80;;
75246;SDS011;63844;50.042;19.224;2023-04-01T16:19:36;7.80;;;5.10;;
75246;SDS011;63844;50.042;19.224;2023-04-01T16:22:28;9.60;;;5.00;;
75246;SDS011;63844;50.042;19.224;2023-04-01T16:28:03;9.60;;;5.70;;
75246;SDS011;63844;50.042;19.224;2023-04-01T16:33:45;11.90;;;6.60;;
75246;SDS011;63844;50.042;19.224;2023-04-01T16:36:22;12.30;;;6.10;;
75246;SDS011;63844;50.042;19.224;2023-04-01T16:44:25;10.80;;;4.80;;
75246;SDS011;63844;50.042;19.224;2023-04-01T16:46:56;9.20;;;4.50;;
75246;SDS011;63844;50.042;19.224;2023-04-01T16:49:51;8.90;;;5.50;;
75246;SDS011;63844;50.042;19.224;2023-04-01T16:52:35;9.30;;;6.50;;
75246;SDS011;63844;50.042;19.224;2023-04-01T16:55:17;9.80;;;5.70;;
75246;SDS011;63844;50.042;19.224;2023-04-01T16:57:55;13.30;;;7.40;;
75246;SDS011;63844;50.042;19.224;2023-04-01T17:05:37;11.50;;;6.70;;
75246;SDS011;63844;50.042;19.224;2023-04-01T17:11:26;37.40;;;14.60;;
75246;SDS011;63844;50.042;19.224;2023-04-01T17:16:45;21.10;;;10.80;;
75246;SDS011;63844;50.042;19.224;2023-04-01T17:19:39;36.20;;;17.60;;
75246;SDS011;63844;50.042;19.224;2023-04-01T17:22:55;18.20;;;9.90;;
75246;SDS011;63844;50.042;19.224;2023-04-01T17:30:37;17.30;;;11.20;;
75246;SDS011;63844;50.042;19.224;2023-04-01T17:33:19;16.50;;;10.80;;
75246;SDS011;63844;50.042;19.224;2023-04-01T17:38:40;22.50;;;13.00;;
75246;SDS011;63844;50.042;19.224;2023-04-01T17:56:42;48.60;;;25.30;;
75246;SDS011;63844;50.042;19.224;2023-04-01T17:58:58;79.20;;;38.90;;
75246;SDS011;63844;50.042;19.224;2023-04-01T18:01:40;63.60;;;32.20;;
75246;SDS011;63844;50.042;19.224;2023-04-01T18:08:08;62.00;;;30.80;;
75246;SDS011;63844;50.042;19.224;2023-04-01T18:13:05;21.30;;;11.70;;
75246;SDS011;63844;50.042;19.224;2023-04-01T18:18:49;23.40;;;11.20;;
75246;SDS011;63844;50.042;19.224;2023-04-01T18:21:27;17.80;;;9.60;;
75246;SDS011;63844;50.042;19.224;2023-04-01T18:24:06;20.70;;;10.70;;
75246;SDS011;63844;50.042;19.224;2023-04-01T18:26:42;19.70;;;10.20;;
75246;SDS011;63844;50.042;19.224;2023-04-01T18:31:45;19.40;;;11.00;;
75246;SDS011;63844;50.042;19.224;2023-04-01T18:34:18;24.40;;;11.30;;
75246;SDS011;63844;50.042;19.224;2023-04-01T18:39:57;16.10;;;8.10;;
75246;SDS011;63844;50.042;19.224;2023-04-01T18:46:03;21.30;;;11.40;;
75246;SDS011;63844;50.042;19.224;2023-04-01T18:48:52;15.50;;;8.20;;
75246;SDS011;63844;50.042;19.224;2023-04-01T18:56:49;13.70;;;7.50;;
75246;SDS011;63844;50.042;19.224;2023-04-01T19:04:38;13.50;;;6.60;;
75246;SDS011;63844;50.042;19.224;2023-04-01T19:07:26;28.10;;;15.90;;
75246;SDS011;63844;50.042;19.224;2023-04-01T19:15:29;20.80;;;11.10;;
75246;SDS011;63844;50.042;19.224;2023-04-01T19:26:34;17.40;;;9.60;;
75246;SDS011;63844;50.042;19.224;2023-04-01T19:31:51;22.60;;;13.00;;
75246;SDS011;63844;50.042;19.224;2023-04-01T19:40:29;24.20;;;12.30;;
75246;SDS011;63844;50.042;19.224;2023-04-01T19:45:52;23.20;;;12.10;;
75246;SDS011;63844;50.042;19.224;2023-04-01T19:48:37;22.10;;;11.30;;
75246;SDS011;63844;50.042;19.224;2023-04-01T19:56:58;14.00;;;8.00;;
75246;SDS011;63844;50.042;19.224;2023-04-01T19:59:34;14.70;;;7.50;;
75246;SDS011;63844;50.042;19.224;2023-04-01T20:04:37;15.50;;;8.90;;
75246;SDS011;63844;50.042;19.224;2023-04-01T20:12:41;19.90;;;10.00;;
75246;SDS011;63844;50.042;19.224;2023-04-01T20:16:13;14.40;;;7.90;;
75246;SDS011;63844;50.042;19.224;2023-04-01T20:20:53;16.80;;;8.70;;
75246;SDS011;63844;50.042;19.224;2023-04-01T20:26:04;16.30;;;8.30;;
75246;SDS011;63844;50.042;19.224;2023-04-01T20:31:11;25.50;;;9.20;;
75246;SDS011;63844;50.042;19.224;2023-04-01T20:33:57;16.60;;;7.10;;
75246;SDS011;63844;50.042;19.224;2023-04-01T20:50:27;11.30;;;5.80;;
75246;SDS011;63844;50.042;19.224;2023-04-01T21:01:13;11.10;;;5.80;;
75246;SDS011;63844;50.042;19.224;2023-04-01T21:04:16;16.00;;;7.30;;
75246;SDS011;63844;50.042;19.224;2023-04-01T21:07:33;19.10;;;7.60;;
75246;SDS011;63844;50.042;19.224;2023-04-01T21:10:09;14.20;;;7.00;;
75246;SDS011;63844;50.042;19.224;2023-04-01T21:12:55;17.60;;;7.90;;
75246;SDS011;63844;50.042;19.224;2023-04-01T21:27:00;30.10;;;14.50;;
75246;SDS011;63844;50.042;19.224;2023-04-01T21:32:52;33.60;;;15.40;;
75246;SDS011;63844;50.042;19.224;2023-04-01T21:41:20;33.00;;;14.60;;
75246;SDS011;63844;50.042;19.224;2023-04-01T21:46:58;23.00;;;10.20;;
75246;SDS011;63844;50.042;19.224;2023-04-01T21:52:49;24.50;;;10.80;;
75246;SDS011;63844;50.042;19.224;2023-04-01T21:55:41;24.70;;;13.70;;
75246;SDS011;63844;50.042;19.224;2023-04-01T22:04:21;28.80;;;15.80;;
75246;SDS011;63844;50.042;19.224;2023-04-01T22:10:04;42.30;;;21.80;;
75246;SDS011;63844;50.042;19.224;2023-04-01T22:18:30;38.40;;;17.00;;
75246;SDS011;63844;50.042;19.224;2023-04-01T22:23:51;24.60;;;13.20;;
75246;SDS011;63844;50.042;19.224;2023-04-01T22:26:27;29.70;;;14.40;;
75246;SDS011;63844;50.042;19.224;2023-04-01T22:29:05;30.20;;;14.30;;
75246;SDS011;63844;50.042;19.224;2023-04-01T22:31:42;25.70;;;12.50;;
75246;SDS011;63844;50.042;19.224;2023-04-01T22:47:46;25.90;;;12.90;;
75246;SDS011;63844;50.042;19.224;2023-04-01T22:50:18;28.60;;;14.90;;
75246;SDS011;63844;50.042;19.224;2023-04-01T22:52:49;23.60;;;11.80;;
75246;SDS011;63844;50.042;19.224;2023-04-01T22:55:22;24.00;;;13.50;;
75246;SDS011;63844;50.042;19.224;2023-04-01T22:58:26;26.50;;;14.60;;
75246;SDS011;63844;50.042;19.224;2023-04-01T23:00:58;21.70;;;11.30;;
75246;SDS011;63844;50.042;19.224;2023-04-01T23:03:38;21.30;;;12.90;;
75246;SDS011;63844;50.042;19.224;2023-04-01T23:11:49;22.50;;;12.90;;
75246;SDS011;63844;50.042;19.224;2023-04-01T23:14:25;20.00;;;10.50;;
75246;SDS011;63844;50.042;19.224;2023-04-01T23:17:12;21.30;;;10.40;;
75246;SDS011;63844;50.042;19.224;2023-04-01T23:25:49;19.20;;;10.60;;
75246;SDS011;63844;50.042;19.224;2023-04-01T23:28:26;24.00;;;12.60;;
75246;SDS011;63844;50.042;19.224;2023-04-01T23:31:03;24.30;;;13.50;;
75246;SDS011;63844;50.042;19.224;2023-04-01T23:33:30;26.70;;;15.90;;
75246;SDS011;63844;50.042;19.224;2023-04-01T23:36:01;24.60;;;13.70;;
75246;SDS011;63844;50.042;19.224;2023-04-01T23:38:37;26.40;;;15.50;;
75246;SDS011;63844;50.042;19.224;2023-04-01T23:41:08;23.40;;;13.60;;
75246;SDS011;63844;50.042;19.224;2023-04-01T23:43:43;24.30;;;14.80;;
75246;SDS011;63844;50.042;19.224;2023-04-01T23:46:11;24.40;;;14.60;;
75246;SDS011;63844;50.042;19.224;2023-04-01T23:48:40;23.60;;;13.40;;
75246;SDS011;63844;50.042;19.224;2023-04-01T23:51:13;26.70;;;14.70;;
75246;SDS011;63844;50.042;19.224;2023-04-01T23:53:45;24.10;;;13.70;;
75246;SDS011;63844;50.042;19.224;2023-04-01T23:56:17;24.20;;;14.10;;
75246;SDS011;63844;50.042;19.224;2023-04-01T23:58:45;28.10;;;16.00;;
